createdAt,value
2018-08-18T00:01:56.210Z,57.92
2018-08-18T00:04:30.841Z,57.78
2018-08-18T00:07:01.788Z,58.20
2018-08-18T00:09:32.094Z,58.22
2018-08-18T00:12:02.157Z,59.88
2018-08-18T00:14:32.404Z,58.63
2018-08-18T00:17:02.214Z,58.23
2018-08-18T00:19:32.132Z,58.63
2018-08-18T00:22:01.961Z,58.20
2018-08-18T00:24:32.246Z,58.45
2018-08-18T00:27:02.121Z,58.66
2018-08-18T00:29:32.031Z,58.90
2018-08-18T00:32:01.918Z,58.53
2018-08-18T00:34:32.147Z,58.74
2018-08-18T00:37:02.249Z,58.78
2018-08-18T00:39:32.117Z,59.18
2018-08-18T00:42:02.654Z,59.35
2018-08-18T00:44:32.591Z,59.58
2018-08-18T00:47:02.444Z,59.05
2018-08-18T00:49:32.461Z,59.12
2018-08-18T00:52:02.288Z,59.03
2018-08-18T00:54:32.842Z,58.80
2018-08-18T00:57:08.896Z,59.29
2018-08-18T00:59:43.048Z,59.18
2018-08-18T01:02:13.171Z,59.52
2018-08-18T01:04:47.902Z,59.12
2018-08-18T01:07:18.064Z,59.48
2018-08-18T01:09:48.176Z,59.45
2018-08-18T01:12:18.333Z,59.47
2018-08-18T01:14:48.440Z,59.75
2018-08-18T01:17:18.508Z,59.75
2018-08-18T01:19:48.420Z,59.72
2018-08-18T01:22:18.270Z,60.16
2018-08-18T01:24:48.310Z,60.30
2018-08-18T01:27:18.118Z,60.15
2018-08-18T01:30:07.466Z,60.35
2018-08-18T01:32:37.621Z,60.52
2018-08-18T01:35:07.658Z,60.69
2018-08-18T01:37:37.554Z,60.66
2018-08-18T01:40:07.657Z,60.64
2018-08-18T01:42:37.524Z,60.99
2018-08-18T01:45:07.564Z,60.63
2018-08-18T01:47:37.458Z,61.23
2018-08-18T01:50:12.156Z,60.89
2018-08-18T01:52:42.084Z,61.22
2018-08-18T01:55:12.242Z,61.27
2018-08-18T01:57:42.121Z,61.39
2018-08-18T02:00:29.061Z,61.86
2018-08-18T02:02:59.173Z,61.78
2018-08-18T02:05:29.129Z,61.95
2018-08-18T02:07:59.101Z,62.32
2018-08-18T02:10:29.345Z,61.84
2018-08-18T02:13:12.654Z,61.95
2018-08-18T02:15:56.342Z,61.93
2018-08-18T02:18:26.205Z,62.15
2018-08-18T02:20:56.180Z,62.12
2018-08-18T02:23:26.126Z,64.14
2018-08-18T02:25:56.062Z,64.99
2018-08-18T02:28:30.412Z,65.10
2018-08-18T02:31:00.506Z,66.19
2018-08-18T02:33:30.581Z,66.08
2018-08-18T02:36:00.374Z,65.63
2018-08-18T02:38:30.347Z,65.56
2018-08-18T02:41:00.421Z,66.07
2018-08-18T02:43:30.417Z,65.58
2018-08-18T02:46:09.922Z,66.36
2018-08-18T02:48:40.097Z,66.12
2018-08-18T02:51:10.409Z,65.72
2018-08-18T02:53:40.399Z,65.86
2018-08-18T02:56:10.949Z,67.93
2018-08-18T02:58:43.204Z,70.01
2018-08-18T03:01:13.620Z,67.81
2018-08-18T03:03:43.660Z,68.27
2018-08-18T03:06:13.851Z,67.50
2018-08-18T03:08:44.137Z,66.96
2018-08-18T03:11:14.150Z,67.69
2018-08-18T03:13:43.985Z,67.84
2018-08-18T03:16:14.392Z,69.08
2018-08-18T03:18:47.571Z,68.19
2018-08-18T03:21:17.828Z,68.87
2018-08-18T03:23:58.808Z,69.40
2018-08-18T03:26:33.760Z,68.59
2018-08-18T03:29:04.304Z,68.44
2018-08-18T03:31:34.331Z,68.88
2018-08-18T03:34:04.450Z,69.08
2018-08-18T03:36:36.977Z,69.81
2018-08-18T03:39:09.995Z,69.20
2018-08-18T03:41:40.196Z,69.79
2018-08-18T03:44:10.092Z,69.57
2018-08-18T03:46:40.063Z,69.57
2018-08-18T03:49:10.085Z,69.44
2018-08-18T03:51:44.506Z,69.77
2018-08-18T03:54:14.827Z,69.53
2018-08-18T03:56:45.499Z,69.90
2018-08-18T03:59:15.548Z,70.11
2018-08-18T04:01:54.636Z,70.01
2018-08-18T04:04:25.990Z,70.27
2018-08-18T04:06:57.243Z,70.17
2018-08-18T04:09:30.325Z,70.19
2018-08-18T04:12:01.701Z,70.50
2018-08-18T04:14:49.618Z,70.47
2018-08-18T04:17:30.258Z,70.37
2018-08-18T04:20:00.638Z,70.76
2018-08-18T04:22:30.522Z,70.83
2018-08-18T04:25:00.492Z,70.99
2018-08-18T04:27:41.080Z,70.37
2018-08-18T04:30:13.520Z,70.07
2018-08-18T04:33:14.419Z,71.28
2018-08-18T04:35:48.617Z,70.51
2018-08-18T04:38:18.834Z,70.99
2018-08-18T04:40:49.047Z,71.41
2018-08-18T04:43:18.934Z,70.94
2018-08-18T04:45:49.045Z,70.83
2018-08-18T04:48:29.892Z,70.94
2018-08-18T04:51:00.294Z,70.79
2018-08-18T04:53:30.098Z,71.23
2018-08-18T04:56:00.104Z,71.12
2018-08-18T04:58:30.054Z,71.25
2018-08-18T05:00:59.911Z,70.85
2018-08-18T05:03:30.209Z,71.63
2018-08-18T05:06:00.066Z,71.72
2018-08-18T05:08:30.320Z,71.91
2018-08-18T05:11:00.170Z,71.28
2018-08-18T05:13:29.946Z,71.21
2018-08-18T05:16:00.174Z,71.14
2018-08-18T05:18:30.588Z,70.94
2018-08-18T05:21:00.652Z,70.94
2018-08-18T05:23:30.809Z,70.90
2018-08-18T05:26:00.869Z,70.58
2018-08-18T05:28:31.290Z,70.50
2018-08-18T05:31:01.129Z,70.60
2018-08-18T05:33:31.098Z,70.40
2018-08-18T05:36:01.694Z,70.64
2018-08-18T05:38:31.993Z,70.69
2018-08-18T05:41:02.516Z,70.83
2018-08-18T05:43:32.350Z,70.23
2018-08-18T05:46:04.878Z,70.53
2018-08-18T05:48:35.218Z,70.24
2018-08-18T05:51:05.376Z,70.60
2018-08-18T05:53:38.484Z,70.53
2018-08-18T05:56:08.803Z,70.21
2018-08-18T05:58:51.741Z,70.23
2018-08-18T06:01:32.510Z,69.84
2018-08-18T06:04:07.676Z,69.87
2018-08-18T06:06:37.833Z,69.71
2018-08-18T06:09:10.784Z,69.16
2018-08-18T06:11:40.863Z,69.41
2018-08-18T06:14:12.489Z,69.54
2018-08-18T06:16:43.630Z,68.85
2018-08-18T06:19:13.919Z,68.42
2018-08-18T06:21:44.491Z,68.35
2018-08-18T06:24:14.528Z,69.18
2018-08-18T06:26:44.743Z,68.66
2018-08-18T06:29:15.058Z,68.80
2018-08-18T06:31:57.681Z,67.63
2018-08-18T06:34:29.721Z,67.22
2018-08-18T06:37:00.444Z,66.74
2018-08-18T06:39:41.119Z,66.70
2018-08-18T06:42:20.662Z,66.66
2018-08-18T06:44:50.703Z,67.09
2018-08-18T06:47:20.677Z,65.78
2018-08-18T06:49:50.711Z,66.08
2018-08-18T06:52:21.349Z,65.89
2018-08-18T06:54:52.653Z,66.36
2018-08-18T06:57:33.533Z,66.88
2018-08-18T07:00:09.649Z,66.79
2018-08-18T07:02:39.967Z,66.64
2018-08-18T07:05:13.182Z,66.69
2018-08-18T07:07:44.325Z,66.83
2018-08-18T07:10:25.596Z,66.91
2018-08-18T07:12:57.044Z,66.37
2018-08-18T07:15:29.492Z,66.43
2018-08-18T07:17:59.977Z,66.25
2018-08-18T07:20:30.992Z,65.07
2018-08-18T07:23:01.269Z,64.84
2018-08-18T07:25:31.181Z,64.92
2018-08-18T07:28:06.411Z,65.45
2018-08-18T07:30:36.393Z,64.13
2018-08-18T07:33:07.022Z,64.36
2018-08-18T07:35:37.182Z,64.96
2018-08-18T07:38:07.188Z,65.18
2018-08-18T07:40:53.528Z,64.34
2018-08-18T07:43:26.691Z,64.98
2018-08-18T07:45:58.298Z,64.57
2018-08-18T07:48:28.226Z,64.26
2018-08-18T07:50:58.381Z,63.80
2018-08-18T07:53:28.398Z,63.49
2018-08-18T07:55:58.519Z,64.23
2018-08-18T07:58:28.535Z,63.90
2018-08-18T08:01:00.037Z,63.65
2018-08-18T08:03:30.306Z,63.76
2018-08-18T08:06:00.228Z,63.80
2018-08-18T08:08:36.665Z,63.55
2018-08-18T08:11:11.638Z,63.20
2018-08-18T08:13:41.701Z,63.08
2018-08-18T08:16:11.662Z,62.64
2018-08-18T08:18:41.691Z,62.68
2018-08-18T08:21:12.290Z,62.42
2018-08-18T08:23:42.258Z,61.83
2018-08-18T08:26:12.426Z,61.37
2018-08-18T08:28:46.495Z,61.13
2018-08-18T08:31:16.617Z,60.85
2018-08-18T08:33:46.680Z,61.73
2018-08-18T08:36:17.808Z,61.03
2018-08-18T08:39:06.569Z,59.88
2018-08-18T08:41:36.864Z,58.86
2018-08-18T08:44:07.081Z,58.83
2018-08-18T08:46:38.668Z,58.72
2018-08-18T08:49:08.809Z,58.65
2018-08-18T08:51:39.343Z,58.53
2018-08-18T08:54:09.317Z,56.90
2018-08-18T08:56:41.003Z,56.68
2018-08-18T08:59:11.272Z,56.63
2018-08-18T09:01:41.373Z,56.68
2018-08-18T09:04:11.755Z,55.87
2018-08-18T09:06:48.690Z,56.14
2018-08-18T09:09:18.546Z,56.06
2018-08-18T09:11:48.509Z,55.83
2018-08-18T09:14:18.445Z,56.35
2018-08-18T09:16:48.308Z,55.91
2018-08-18T09:19:20.280Z,55.99
2018-08-18T09:21:53.684Z,55.51
2018-08-18T09:24:25.865Z,55.72
2018-08-18T09:26:56.994Z,55.68
2018-08-18T09:29:28.378Z,55.74
2018-08-18T09:31:59.658Z,55.41
2018-08-18T09:34:32.872Z,55.17
2018-08-18T09:37:03.044Z,54.76
2018-08-18T09:39:35.418Z,54.38
2018-08-18T09:42:07.431Z,54.70
2018-08-18T09:44:40.602Z,54.81
2018-08-18T09:47:10.436Z,55.74
2018-08-18T09:49:40.349Z,56.16
2018-08-18T09:52:13.874Z,55.05
2018-08-18T09:54:43.700Z,55.68
2018-08-18T09:57:13.837Z,55.75
2018-08-18T09:59:43.882Z,55.64
2018-08-18T10:02:18.559Z,55.11
2018-08-18T10:04:48.337Z,56.07
2018-08-18T10:07:18.405Z,55.67
2018-08-18T10:09:48.248Z,56.60
2018-08-18T10:12:18.113Z,56.84
2018-08-18T10:14:48.164Z,56.38
2018-08-18T10:17:18.076Z,56.23
2018-08-18T10:19:48.258Z,56.88
2018-08-18T10:22:18.171Z,56.63
2018-08-18T10:24:48.218Z,60.34
2018-08-18T10:27:19.811Z,60.72
2018-08-18T10:29:50.064Z,59.86
2018-08-18T10:32:20.149Z,60.47
2018-08-18T10:34:50.190Z,60.80
2018-08-18T10:37:20.900Z,61.25
2018-08-18T10:39:56.499Z,61.56
2018-08-18T10:42:27.185Z,60.86
2018-08-18T10:45:01.032Z,61.26
2018-08-18T10:47:31.374Z,61.29
2018-08-18T10:50:11.843Z,61.41
2018-08-18T10:52:52.486Z,61.47
2018-08-18T10:55:22.373Z,61.92
2018-08-18T10:57:59.272Z,61.81
2018-08-18T11:00:30.536Z,62.04
2018-08-18T11:03:01.812Z,62.40
2018-08-18T11:05:32.426Z,61.65
2018-08-18T11:08:07.405Z,62.29
2018-08-18T11:10:39.940Z,62.17
2018-08-18T11:13:10.095Z,61.97
2018-08-18T11:15:40.216Z,61.98
2018-08-18T11:18:10.276Z,62.96
2018-08-18T11:20:40.155Z,62.21
2018-08-18T11:23:12.390Z,63.44
2018-08-18T11:25:50.968Z,63.44
2018-08-18T11:28:21.668Z,63.72
2018-08-18T11:30:53.609Z,64.62
2018-08-18T11:33:37.373Z,66.01
2018-08-18T11:36:10.014Z,64.79
2018-08-18T11:38:40.095Z,65.91
2018-08-18T11:41:09.943Z,65.30
2018-08-18T11:43:54.872Z,66.07
2018-08-18T11:46:24.945Z,65.64
2018-08-18T11:48:55.364Z,66.13
2018-08-18T11:51:28.978Z,65.83
2018-08-18T11:54:02.122Z,64.99
2018-08-18T11:56:33.599Z,65.51
2018-08-18T11:59:09.365Z,64.32
2018-08-18T12:01:40.838Z,64.17
2018-08-18T12:04:11.347Z,63.26
2018-08-18T12:07:02.464Z,63.39
2018-08-18T12:09:32.374Z,61.96
2018-08-18T12:12:02.284Z,61.58
2018-08-18T12:14:32.144Z,60.02
2018-08-18T12:17:02.053Z,59.14
2018-08-18T12:19:32.415Z,58.01
2018-08-18T12:22:02.320Z,57.22
2018-08-18T12:24:32.109Z,55.49
2018-08-18T12:27:10.954Z,55.56
2018-08-18T12:29:40.992Z,54.00
2018-08-18T12:32:16.124Z,53.75
2018-08-18T12:34:46.329Z,53.15
2018-08-18T12:37:16.556Z,52.08
2018-08-18T12:39:46.456Z,52.24
2018-08-18T12:42:21.121Z,51.00
2018-08-18T12:44:51.047Z,50.79
2018-08-18T12:47:20.997Z,49.64
2018-08-18T12:49:52.553Z,49.64
2018-08-18T12:52:22.589Z,49.04
2018-08-18T12:54:52.411Z,49.43
2018-08-18T12:57:32.697Z,49.39
2018-08-18T13:00:04.926Z,47.21
2018-08-18T13:02:43.172Z,47.42
2018-08-18T13:05:13.628Z,47.30
2018-08-18T13:07:44.118Z,47.14
2018-08-18T13:10:18.667Z,47.03
2018-08-18T13:12:49.464Z,47.68
2018-08-18T13:15:20.147Z,47.66
2018-08-18T13:17:50.107Z,46.86
2018-08-18T13:20:23.466Z,46.63
2018-08-18T13:22:53.319Z,46.83
2018-08-18T13:25:23.314Z,46.95
2018-08-18T13:27:54.017Z,45.88
2018-08-18T13:30:24.713Z,45.13
2018-08-18T13:32:58.268Z,44.70
2018-08-18T13:35:28.104Z,44.49
2018-08-18T13:37:58.526Z,43.85
2018-08-18T13:40:29.254Z,42.85
2018-08-18T13:42:59.222Z,42.23
2018-08-18T13:45:49.020Z,42.38
2018-08-18T13:48:18.842Z,42.58
2018-08-18T13:50:50.003Z,42.94
2018-08-18T13:53:20.161Z,41.79
2018-08-18T13:55:50.114Z,41.60
2018-08-18T13:58:20.587Z,39.90
2018-08-18T14:00:50.737Z,40.90
2018-08-18T14:03:27.807Z,40.79
2018-08-18T14:05:58.126Z,39.95
2018-08-18T14:08:28.025Z,40.07
2018-08-18T14:10:57.879Z,39.23
2018-08-18T14:13:28.558Z,38.41
2018-08-18T14:15:58.655Z,37.29
2018-08-18T14:18:28.619Z,37.58
2018-08-18T14:21:04.894Z,38.03
2018-08-18T14:23:35.075Z,37.61
2018-08-18T14:26:05.984Z,37.80
2018-08-18T14:28:36.216Z,37.87
2018-08-18T14:31:06.458Z,37.54
2018-08-18T14:33:36.841Z,37.87
2018-08-18T14:36:11.349Z,36.88
2018-08-18T14:38:42.305Z,37.08
2018-08-18T14:41:12.876Z,36.82
2018-08-18T14:43:43.652Z,36.73
2018-08-18T14:46:15.598Z,36.38
2018-08-18T14:48:45.854Z,37.34
2018-08-18T14:51:16.789Z,37.36
2018-08-18T14:53:47.169Z,38.32
2018-08-18T14:56:17.398Z,37.91
2018-08-18T14:58:47.623Z,37.27
2018-08-18T15:01:18.045Z,37.90
2018-08-18T15:03:48.187Z,36.96
2018-08-18T15:06:18.231Z,37.66
2018-08-18T15:08:48.278Z,37.42
2018-08-18T15:11:18.362Z,37.28
2018-08-18T15:13:48.471Z,36.30
2018-08-18T15:16:20.404Z,37.02
2018-08-18T15:18:50.454Z,36.92
2018-08-18T15:21:21.034Z,37.60
2018-08-18T15:23:51.840Z,37.06
2018-08-18T15:26:22.172Z,37.47
2018-08-18T15:28:52.604Z,37.94
2018-08-18T15:31:23.372Z,38.01
2018-08-18T15:33:53.869Z,37.26
2018-08-18T15:36:33.744Z,37.59
2018-08-18T15:39:04.233Z,36.36
2018-08-18T15:41:34.917Z,36.55
2018-08-18T15:44:08.766Z,36.32
2018-08-18T15:46:39.072Z,36.05
2018-08-18T15:49:09.208Z,36.46
2018-08-18T15:51:39.255Z,36.09
2018-08-18T15:54:09.375Z,36.10
2018-08-18T15:56:39.406Z,35.31
2018-08-18T15:59:09.427Z,35.81
2018-08-18T16:01:39.456Z,35.34
2018-08-18T16:04:09.553Z,36.23
2018-08-18T16:06:39.528Z,36.55
2018-08-18T16:09:10.292Z,36.84
2018-08-18T16:11:40.594Z,36.31
2018-08-18T16:14:10.604Z,36.27
2018-08-18T16:16:56.808Z,35.91
2018-08-18T16:19:27.499Z,35.56
2018-08-18T16:21:57.597Z,35.75
2018-08-18T16:24:32.649Z,35.89
2018-08-18T16:27:05.389Z,35.96
2018-08-18T16:29:35.824Z,35.67
2018-08-18T16:32:22.516Z,35.79
2018-08-18T16:35:00.254Z,36.24
2018-08-18T16:37:30.796Z,36.84
2018-08-18T16:40:01.144Z,36.74
2018-08-18T16:42:33.261Z,36.99
2018-08-18T16:45:03.346Z,37.03
2018-08-18T16:47:38.404Z,36.95
2018-08-18T16:50:08.469Z,36.79
2018-08-18T16:52:38.572Z,37.12
2018-08-18T16:55:08.586Z,37.45
2018-08-18T16:57:38.694Z,37.51
2018-08-18T17:00:09.198Z,37.40
2018-08-18T17:02:40.014Z,36.94
2018-08-18T17:05:10.886Z,36.74
2018-08-18T17:07:43.841Z,37.37
2018-08-18T17:10:14.234Z,37.24
2018-08-18T17:12:44.291Z,37.56
2018-08-18T17:15:14.499Z,37.93
2018-08-18T17:17:48.475Z,38.59
2018-08-18T17:20:18.536Z,38.51
2018-08-18T17:22:48.568Z,38.82
2018-08-18T17:25:18.553Z,38.51
2018-08-18T17:27:48.641Z,38.72
2018-08-18T17:30:18.928Z,39.09
2018-08-18T17:32:49.256Z,39.57
2018-08-18T17:35:19.505Z,39.42
2018-08-18T17:37:49.677Z,40.23
2018-08-18T17:40:20.036Z,40.34
2018-08-18T17:42:50.258Z,40.58
2018-08-18T17:45:20.705Z,40.85
2018-08-18T17:47:54.030Z,41.38
2018-08-18T17:50:24.346Z,40.86
2018-08-18T17:52:54.375Z,41.42
2018-08-18T17:55:25.057Z,41.84
2018-08-18T17:57:55.037Z,42.30
2018-08-18T18:00:25.214Z,42.71
2018-08-18T18:02:57.635Z,43.22
2018-08-18T18:05:30.444Z,43.70
2018-08-18T18:08:03.633Z,43.56
2018-08-18T18:10:35.188Z,43.83
2018-08-18T18:13:17.015Z,44.28
2018-08-18T18:15:48.585Z,45.08
2018-08-18T18:18:20.018Z,45.66
2018-08-18T18:20:51.777Z,46.50
2018-08-18T18:23:22.506Z,47.56
2018-08-18T18:25:52.691Z,47.97
2018-08-18T18:28:22.780Z,48.42
2018-08-18T18:30:54.173Z,49.14
2018-08-18T18:33:24.027Z,48.65
2018-08-18T18:35:54.020Z,49.54
2018-08-18T18:38:24.579Z,49.74
2018-08-18T18:40:54.538Z,49.80
2018-08-18T18:43:24.701Z,49.59
2018-08-18T18:45:54.835Z,49.79
2018-08-18T18:48:25.474Z,50.00
2018-08-18T18:50:59.148Z,50.27
2018-08-18T18:53:37.877Z,50.44
2018-08-18T18:56:08.861Z,50.75
2018-08-18T18:58:39.712Z,51.05
2018-08-18T19:01:09.826Z,51.42
2018-08-18T19:03:40.458Z,52.01
2018-08-18T19:06:10.550Z,51.80
2018-08-18T19:08:56.351Z,52.23
2018-08-18T19:11:27.338Z,52.22
2018-08-18T19:13:57.549Z,52.68
2018-08-18T19:16:27.592Z,53.01
2018-08-18T19:18:58.598Z,52.49
2018-08-18T19:21:32.692Z,53.18
2018-08-18T19:24:11.786Z,54.13
2018-08-18T19:26:52.487Z,54.12
2018-08-18T19:29:25.035Z,54.48
2018-08-18T19:31:57.846Z,54.43
2018-08-18T19:34:28.521Z,55.13
2018-08-18T19:37:05.397Z,55.13
2018-08-18T19:39:36.666Z,55.40
2018-08-18T19:42:12.465Z,55.95
2018-08-18T19:44:47.340Z,55.58
2018-08-18T19:47:23.844Z,55.92
2018-08-18T19:49:54.873Z,55.92
2018-08-18T19:52:26.060Z,56.35
2018-08-18T19:54:57.266Z,56.57
2018-08-18T19:57:32.072Z,57.39
2018-08-18T20:00:19.150Z,57.91
2018-08-18T20:03:00.061Z,58.20
2018-08-18T20:05:30.462Z,58.42
2018-08-18T20:08:00.417Z,58.46
2018-08-18T20:10:30.482Z,58.73
2018-08-18T20:13:00.659Z,59.38
2018-08-18T20:15:30.478Z,59.63
2018-08-18T20:18:00.498Z,59.66
2018-08-18T20:20:30.595Z,59.31
2018-08-18T20:23:01.757Z,60.17
2018-08-18T20:25:32.811Z,60.26
2018-08-18T20:28:03.592Z,60.18
2018-08-18T20:30:34.653Z,60.67
2018-08-18T20:33:05.773Z,60.47
2018-08-18T20:35:36.821Z,60.29
2018-08-18T20:38:08.032Z,60.16
2018-08-18T20:40:38.565Z,60.19
2018-08-18T20:43:09.792Z,59.39
2018-08-18T20:45:45.391Z,59.90
2018-08-18T20:48:17.843Z,59.81
2018-08-18T20:50:48.292Z,60.24
2018-08-18T20:53:18.672Z,60.44
2018-08-18T20:56:00.491Z,61.24
2018-08-18T20:58:32.893Z,61.23
2018-08-18T21:01:03.545Z,61.28
2018-08-18T21:03:46.967Z,61.48
2018-08-18T21:06:17.965Z,61.87
2018-08-18T21:08:48.425Z,61.91
2018-08-18T21:11:18.588Z,61.75
2018-08-18T21:13:50.086Z,61.97
2018-08-18T21:16:21.085Z,62.24
2018-08-18T21:18:51.119Z,62.77
2018-08-18T21:21:35.761Z,63.10
2018-08-18T21:24:06.048Z,63.33
2018-08-18T21:26:36.127Z,63.51
2018-08-18T21:29:06.317Z,63.17
2018-08-18T21:31:37.464Z,63.49
2018-08-18T21:34:08.433Z,63.87
2018-08-18T21:36:38.292Z,63.92
2018-08-18T21:39:10.264Z,64.42
2018-08-18T21:41:42.011Z,64.31
2018-08-18T21:44:13.491Z,64.04
2018-08-18T21:46:43.729Z,64.71
2018-08-18T21:49:14.379Z,65.62
2018-08-18T21:51:44.319Z,65.74
2018-08-18T21:54:14.369Z,65.61
2018-08-18T21:56:49.788Z,65.69
2018-08-18T21:59:20.317Z,66.02
2018-08-18T22:01:50.821Z,65.70
2018-08-18T22:04:21.518Z,66.14
2018-08-18T22:06:51.768Z,65.98
2018-08-18T22:09:29.535Z,65.89
2018-08-18T22:11:59.857Z,65.99
2018-08-18T22:14:32.861Z,66.16
2018-08-18T22:17:03.205Z,67.35
2018-08-18T22:19:33.319Z,66.57
2018-08-18T22:22:03.521Z,66.86
2018-08-18T22:24:33.371Z,66.57
2018-08-18T22:27:03.230Z,65.99
2018-08-18T22:29:33.076Z,66.39
2018-08-18T22:32:09.209Z,66.64
2018-08-18T22:34:39.389Z,66.26
2018-08-18T22:37:15.426Z,66.46
2018-08-18T22:39:45.472Z,66.78
2018-08-18T22:42:15.262Z,66.86
2018-08-18T22:44:45.054Z,67.26
2018-08-18T22:47:15.074Z,66.90
2018-08-18T22:49:44.990Z,67.04
2018-08-18T22:52:15.142Z,68.67
2018-08-18T22:54:45.186Z,68.61
2018-08-18T22:57:15.529Z,68.70
2018-08-18T22:59:45.567Z,68.38
2018-08-18T23:02:15.534Z,67.90
2018-08-18T23:04:45.674Z,68.73
2018-08-18T23:07:15.936Z,67.80
2018-08-18T23:09:46.137Z,67.67
2018-08-18T23:12:16.152Z,67.96
2018-08-18T23:14:46.265Z,67.83
2018-08-18T23:17:16.294Z,68.14
2018-08-18T23:19:46.291Z,67.65
2018-08-18T23:22:26.721Z,67.81
2018-08-18T23:24:57.021Z,67.72
2018-08-18T23:27:28.468Z,67.59
2018-08-18T23:30:00.402Z,67.53
2018-08-18T23:32:30.454Z,67.99
2018-08-18T23:35:00.399Z,67.56
2018-08-18T23:37:30.380Z,67.76
2018-08-18T23:40:00.440Z,67.91
2018-08-18T23:42:30.388Z,67.65
2018-08-18T23:45:00.568Z,67.92
2018-08-18T23:47:30.520Z,68.02
2018-08-18T23:50:00.521Z,67.78
2018-08-18T23:52:30.829Z,68.12
2018-08-18T23:55:01.137Z,68.12
2018-08-18T23:57:31.160Z,67.74
